Atomic City, ID

12:58 PM MDT on September 02, 2014 (GMT -0600)
ITD INL Puzzle ID US | Change Station
CLOSE
Current Station
Personal Weather Station
Location: Atomic City, ID
Elevation: 4949 ft
Nearby Weather Stations

Elev 4949 ft 43.51 °N, 112.89 °W | Updated 43 minutes ago

Clear
Clear
67 °F
Feels Like 67 °F
N
7
Wind Variable Wind from WNW
Gusts 10.0 mph

Today
High -- | Low -- °F
--% Chance of Precip.
Yesterday
High -- | Low -- °F
Precip. -- in
6:56 AM 8:04 PM
First Quarter, 54% visible
Pressure 29.90 in
Visibility 10.0 miles
Clouds Clear
Dew Point 36 °F
Humidity 31%
Rainfall -999.00 in
Snow Depth Not available.
UV 9 out of 12
Pollen 8.10 out of 12
PM2.5 Good
Flu Activity Not available.
METAR KIDA 021853Z 23011KT 10SM CLR 23/03 A3001 RMK AO2 SLP124 T02330028

More Conditions Fewer Conditions

Pressure 29.90 in
Visibility 10.0 miles
Clouds Clear
Dew Point 36 °F
Humidity 31%
Rainfall -999.00 in
Snow Depth Not available.
UV 9 out of 12
Pollen 8.10 out of 12
PM2.5 Good
Flu Activity Not available.
METAR KIDA 021853Z 23011KT 10SM CLR 23/03 A3001 RMK AO2 SLP124 T02330028

More Conditions Fewer Conditions

10-Day Weather Forecast

Almanac

Astronomy

Sep. 02, 2014 Rise Set
Actual Time 6:56 AM MDT 8:04 PM MDT
Civil Twilight 6:26 AM MDT 8:33 PM MDT
Nautical Twilight 5:51 AM MDT 9:08 PM MDT
Astronomical Twilight 5:14 AM MDT 9:45 PM MDT
Moon 2:56 PM MDT No Moon Set
Length of Visible Light 14h 06m
Length of Day
13h 08m
Tomorrow will be 2m 52s shorter.
First Quarter, 54% of the Moon is Illuminated
Today
First Quarter
Sep 8
Full
Sep 15
Last Quarter
Sep 24
New
Oct 1
First Quarter

Today's Extremes

State Highs State Lows

Community

WunderPhotos

Upload Photos

1,749,743 photos uploaded!

WunderBlogs® & News

By Dr. Jeff Masters
Director of Meteorology, Weather Underground
By Kari Strenfel
Meteorologist, Weather Underground
By Christopher C. Burt
Weather Historian, Weather Underground
September 2, 2014
September 2, 2014
September 2, 2014

Nearby

Air Quality

  Air Quality AQ Index Pollutant
Yesterday Good
PM2.5
Current Good
PM2.5
Tuesday Good
PM2.5
Wednesday Good
PM2.5

Snow Depth

Station Depth Elevation
Wildhorse Divide 1 in 6490 ft
Sheep Mountain 0 in 6570 ft
Swede Peak 0 in 7640 ft
Bear Canyon 0 in 7900 ft
Moonshine 0 in 7440 ft

Earthquake Activity

City Distance Mag. Time & Date
Driggs, Idaho 98 miles 3.8 2:09 PM MDT
2014-08-30
Minimum magnitude displayed is 2.5.

Coastal Water Temperatures

Place Temperature
No Stations Reporting

Nearby Weather Stations